sensor_id;sensor_type;location;lat;lon;timestamp;temperature;humidity
17726;DHT22;8983;53.156;17.960;2023-04-24T00:01:08;15.80;99.90
17726;DHT22;8983;53.156;17.960;2023-04-24T00:03:36;15.90;99.90
17726;DHT22;8983;53.156;17.960;2023-04-24T00:06:06;15.90;99.90
17726;DHT22;8983;53.156;17.960;2023-04-24T00:08:34;15.90;99.90
17726;DHT22;8983;53.156;17.960;2023-04-24T00:11:03;15.80;99.90
17726;DHT22;8983;53.156;17.960;2023-04-24T00:13:32;15.80;99.90
17726;DHT22;8983;53.156;17.960;2023-04-24T00:16:00;15.80;99.90
17726;DHT22;8983;53.156;17.960;2023-04-24T00:18:28;15.80;99.90
17726;DHT22;8983;53.156;17.960;2023-04-24T00:20:56;15.80;99.90
17726;DHT22;8983;53.156;17.960;2023-04-24T00:23:25;15.80;99.90
17726;DHT22;8983;53.156;17.960;2023-04-24T00:25:53;15.70;99.90
17726;DHT22;8983;53.156;17.960;2023-04-24T00:28:21;15.80;99.90
17726;DHT22;8983;53.156;17.960;2023-04-24T00:30:51;15.80;99.90
17726;DHT22;8983;53.156;17.960;2023-04-24T00:33:19;15.80;99.90
17726;DHT22;8983;53.156;17.960;2023-04-24T00:35:47;15.80;99.90
17726;DHT22;8983;53.156;17.960;2023-04-24T00:38:15;15.70;99.90
17726;DHT22;8983;53.156;17.960;2023-04-24T00:40:43;15.80;99.90
17726;DHT22;8983;53.156;17.960;2023-04-24T00:43:11;15.70;99.90
17726;DHT22;8983;53.156;17.960;2023-04-24T00:45:39;15.70;99.90
17726;DHT22;8983;53.156;17.960;2023-04-24T00:48:09;15.70;99.90
17726;DHT22;8983;53.156;17.960;2023-04-24T00:50:38;15.70;99.90
17726;DHT22;8983;53.156;17.960;2023-04-24T00:53:06;15.60;99.90
17726;DHT22;8983;53.156;17.960;2023-04-24T00:55:35;15.60;99.90
17726;DHT22;8983;53.156;17.960;2023-04-24T00:58:04;15.60;99.90
17726;DHT22;8983;53.156;17.960;2023-04-24T01:00:32;15.60;99.90
17726;DHT22;8983;53.156;17.960;2023-04-24T01:03:01;15.60;99.90
17726;DHT22;8983;53.156;17.960;2023-04-24T01:05:34;15.60;99.90
17726;DHT22;8983;53.156;17.960;2023-04-24T01:08:02;15.60;99.90
17726;DHT22;8983;53.156;17.960;2023-04-24T01:10:31;15.60;99.90
17726;DHT22;8983;53.156;17.960;2023-04-24T01:13:00;15.60;99.90
17726;DHT22;8983;53.156;17.960;2023-04-24T01:15:29;15.60;99.90
17726;DHT22;8983;53.156;17.960;2023-04-24T01:17:57;15.60;99.90
17726;DHT22;8983;53.156;17.960;2023-04-24T01:20:25;15.60;99.90
17726;DHT22;8983;53.156;17.960;2023-04-24T01:22:55;15.60;99.90
17726;DHT22;8983;53.156;17.960;2023-04-24T01:25:26;15.60;99.90
17726;DHT22;8983;53.156;17.960;2023-04-24T01:27:55;15.60;99.90
17726;DHT22;8983;53.156;17.960;2023-04-24T01:30:23;15.50;99.90
17726;DHT22;8983;53.156;17.960;2023-04-24T01:32:51;15.50;99.90
17726;DHT22;8983;53.156;17.960;2023-04-24T01:35:20;15.50;99.90
17726;DHT22;8983;53.156;17.960;2023-04-24T01:37:48;15.40;99.90
17726;DHT22;8983;53.156;17.960;2023-04-24T01:40:17;15.50;99.90
17726;DHT22;8983;53.156;17.960;2023-04-24T01:42:45;15.40;99.90
17726;DHT22;8983;53.156;17.960;2023-04-24T01:45:14;15.40;99.90
17726;DHT22;8983;53.156;17.960;2023-04-24T01:47:42;15.30;99.90
17726;DHT22;8983;53.156;17.960;2023-04-24T01:50:11;15.40;99.90
17726;DHT22;8983;53.156;17.960;2023-04-24T01:52:39;15.40;99.90
17726;DHT22;8983;53.156;17.960;2023-04-24T01:55:07;15.40;99.90
17726;DHT22;8983;53.156;17.960;2023-04-24T01:57:37;15.30;99.90
17726;DHT22;8983;53.156;17.960;2023-04-24T02:00:06;15.30;99.90
17726;DHT22;8983;53.156;17.960;2023-04-24T02:02:35;15.30;99.90
17726;DHT22;8983;53.156;17.960;2023-04-24T02:05:06;15.30;99.90
17726;DHT22;8983;53.156;17.960;2023-04-24T02:07:34;15.30;99.90
17726;DHT22;8983;53.156;17.960;2023-04-24T02:10:03;15.30;99.90
17726;DHT22;8983;53.156;17.960;2023-04-24T02:12:31;15.30;99.90
17726;DHT22;8983;53.156;17.960;2023-04-24T02:15:01;15.30;99.90
17726;DHT22;8983;53.156;17.960;2023-04-24T02:17:29;15.30;99.90
17726;DHT22;8983;53.156;17.960;2023-04-24T02:19:58;15.30;99.90
17726;DHT22;8983;53.156;17.960;2023-04-24T02:22:26;15.30;99.90
17726;DHT22;8983;53.156;17.960;2023-04-24T02:24:54;15.30;99.90
17726;DHT22;8983;53.156;17.960;2023-04-24T02:27:22;15.30;99.90
17726;DHT22;8983;53.156;17.960;2023-04-24T02:29:51;15.30;99.90
17726;DHT22;8983;53.156;17.960;2023-04-24T02:32:20;15.30;99.90
17726;DHT22;8983;53.156;17.960;2023-04-24T02:34:48;15.40;99.90
17726;DHT22;8983;53.156;17.960;2023-04-24T02:37:17;15.30;99.90
17726;DHT22;8983;53.156;17.960;2023-04-24T02:39:45;15.30;99.90
17726;DHT22;8983;53.156;17.960;2023-04-24T02:42:13;15.30;99.90
17726;DHT22;8983;53.156;17.960;2023-04-24T02:44:42;15.30;99.90
17726;DHT22;8983;53.156;17.960;2023-04-24T02:47:10;15.30;99.90
17726;DHT22;8983;53.156;17.960;2023-04-24T02:49:39;15.30;99.90
17726;DHT22;8983;53.156;17.960;2023-04-24T02:52:09;15.30;99.90
17726;DHT22;8983;53.156;17.960;2023-04-24T02:54:37;15.30;99.90
17726;DHT22;8983;53.156;17.960;2023-04-24T02:57:05;15.30;99.90
17726;DHT22;8983;53.156;17.960;2023-04-24T02:59:33;15.30;99.90
17726;DHT22;8983;53.156;17.960;2023-04-24T03:02:02;15.30;99.90
17726;DHT22;8983;53.156;17.960;2023-04-24T03:04:30;15.30;99.90
17726;DHT22;8983;53.156;17.960;2023-04-24T03:07:00;15.30;99.90
17726;DHT22;8983;53.156;17.960;2023-04-24T03:09:28;15.30;99.90
17726;DHT22;8983;53.156;17.960;2023-04-24T03:11:57;15.20;99.90
17726;DHT22;8983;53.156;17.960;2023-04-24T03:14:25;15.30;99.90
17726;DHT22;8983;53.156;17.960;2023-04-24T03:16:53;15.30;99.90
17726;DHT22;8983;53.156;17.960;2023-04-24T03:19:21;15.30;99.90
17726;DHT22;8983;53.156;17.960;2023-04-24T03:21:49;15.20;99.90
17726;DHT22;8983;53.156;17.960;2023-04-24T03:24:18;15.20;99.90
17726;DHT22;8983;53.156;17.960;2023-04-24T03:26:47;15.30;99.90
17726;DHT22;8983;53.156;17.960;2023-04-24T03:29:15;15.30;99.90
17726;DHT22;8983;53.156;17.960;2023-04-24T03:31:43;15.30;99.90
17726;DHT22;8983;53.156;17.960;2023-04-24T03:34:11;15.30;99.90
17726;DHT22;8983;53.156;17.960;2023-04-24T03:36:39;15.30;99.90
17726;DHT22;8983;53.156;17.960;2023-04-24T03:39:07;15.30;99.90
17726;DHT22;8983;53.156;17.960;2023-04-24T03:41:37;15.30;99.90
17726;DHT22;8983;53.156;17.960;2023-04-24T03:44:05;15.30;99.90
17726;DHT22;8983;53.156;17.960;2023-04-24T03:46:33;15.30;99.90
17726;DHT22;8983;53.156;17.960;2023-04-24T03:49:01;15.30;99.90
17726;DHT22;8983;53.156;17.960;2023-04-24T03:51:29;15.30;99.90
17726;DHT22;8983;53.156;17.960;2023-04-24T03:53:58;15.30;99.90
17726;DHT22;8983;53.156;17.960;2023-04-24T03:56:26;15.30;99.90
17726;DHT22;8983;53.156;17.960;2023-04-24T03:58:55;15.30;99.90
17726;DHT22;8983;53.156;17.960;2023-04-24T04:01:23;15.30;99.90
17726;DHT22;8983;53.156;17.960;2023-04-24T04:03:51;15.30;99.90
17726;DHT22;8983;53.156;17.960;2023-04-24T04:06:20;15.30;99.90
17726;DHT22;8983;53.156;17.960;2023-04-24T04:08:48;15.30;99.90
17726;DHT22;8983;53.156;17.960;2023-04-24T04:11:16;15.20;99.90
17726;DHT22;8983;53.156;17.960;2023-04-24T04:13:44;15.20;99.90
17726;DHT22;8983;53.156;17.960;2023-04-24T04:16:16;15.30;99.90
17726;DHT22;8983;53.156;17.960;2023-04-24T04:18:44;15.30;99.90
17726;DHT22;8983;53.156;17.960;2023-04-24T04:21:12;15.20;99.90
17726;DHT22;8983;53.156;17.960;2023-04-24T04:23:41;15.20;99.90
17726;DHT22;8983;53.156;17.960;2023-04-24T04:26:09;15.20;99.90
17726;DHT22;8983;53.156;17.960;2023-04-24T04:28:37;15.20;99.90
17726;DHT22;8983;53.156;17.960;2023-04-24T04:31:06;15.20;99.90
17726;DHT22;8983;53.156;17.960;2023-04-24T04:33:35;15.10;99.90
17726;DHT22;8983;53.156;17.960;2023-04-24T04:36:06;15.20;99.90
17726;DHT22;8983;53.156;17.960;2023-04-24T04:38:34;15.20;99.90
17726;DHT22;8983;53.156;17.960;2023-04-24T04:41:04;15.20;99.90
17726;DHT22;8983;53.156;17.960;2023-04-24T04:43:32;15.20;99.90
17726;DHT22;8983;53.156;17.960;2023-04-24T04:46:01;15.30;99.90
17726;DHT22;8983;53.156;17.960;2023-04-24T04:48:30;15.20;99.90
17726;DHT22;8983;53.156;17.960;2023-04-24T04:51:00;15.20;99.90
17726;DHT22;8983;53.156;17.960;2023-04-24T04:53:28;15.20;99.90
17726;DHT22;8983;53.156;17.960;2023-04-24T04:55:56;15.30;99.90
17726;DHT22;8983;53.156;17.960;2023-04-24T04:58:24;15.30;99.90
17726;DHT22;8983;53.156;17.960;2023-04-24T05:00:52;15.30;99.90
17726;DHT22;8983;53.156;17.960;2023-04-24T05:03:20;15.30;99.90
17726;DHT22;8983;53.156;17.960;2023-04-24T05:05:48;15.40;99.90
17726;DHT22;8983;53.156;17.960;2023-04-24T05:08:18;15.40;99.90
17726;DHT22;8983;53.156;17.960;2023-04-24T05:10:53;15.40;99.90
17726;DHT22;8983;53.156;17.960;2023-04-24T05:13:21;15.50;99.90
17726;DHT22;8983;53.156;17.960;2023-04-24T05:15:52;15.50;99.90
17726;DHT22;8983;53.156;17.960;2023-04-24T05:18:20;15.60;99.90
17726;DHT22;8983;53.156;17.960;2023-04-24T05:20:48;15.60;99.90
17726;DHT22;8983;53.156;17.960;2023-04-24T05:23:17;15.70;99.90
17726;DHT22;8983;53.156;17.960;2023-04-24T05:25:46;15.70;99.90
17726;DHT22;8983;53.156;17.960;2023-04-24T05:28:13;15.70;99.90
17726;DHT22;8983;53.156;17.960;2023-04-24T05:30:42;15.80;99.90
17726;DHT22;8983;53.156;17.960;2023-04-24T05:33:10;15.90;99.90
17726;DHT22;8983;53.156;17.960;2023-04-24T05:35:38;15.90;99.90
17726;DHT22;8983;53.156;17.960;2023-04-24T05:38:12;16.00;99.90
17726;DHT22;8983;53.156;17.960;2023-04-24T05:40:41;15.90;99.90
17726;DHT22;8983;53.156;17.960;2023-04-24T05:43:09;16.10;99.90
17726;DHT22;8983;53.156;17.960;2023-04-24T05:45:37;16.10;99.90
17726;DHT22;8983;53.156;17.960;2023-04-24T05:48:06;16.10;99.90
17726;DHT22;8983;53.156;17.960;2023-04-24T05:50:34;16.00;99.90
17726;DHT22;8983;53.156;17.960;2023-04-24T05:53:03;16.00;99.90
17726;DHT22;8983;53.156;17.960;2023-04-24T05:55:33;16.00;99.90
17726;DHT22;8983;53.156;17.960;2023-04-24T05:58:03;15.90;99.90
17726;DHT22;8983;53.156;17.960;2023-04-24T06:00:32;16.00;99.90
17726;DHT22;8983;53.156;17.960;2023-04-24T06:03:00;16.00;99.90
17726;DHT22;8983;53.156;17.960;2023-04-24T06:05:30;16.10;99.90
17726;DHT22;8983;53.156;17.960;2023-04-24T06:07:58;16.10;99.90
17726;DHT22;8983;53.156;17.960;2023-04-24T06:10:26;16.10;99.90
17726;DHT22;8983;53.156;17.960;2023-04-24T06:12:55;16.20;99.90
17726;DHT22;8983;53.156;17.960;2023-04-24T06:15:29;16.20;99.90
17726;DHT22;8983;53.156;17.960;2023-04-24T06:17:58;16.30;99.90
17726;DHT22;8983;53.156;17.960;2023-04-24T06:20:26;16.30;99.90
17726;DHT22;8983;53.156;17.960;2023-04-24T06:22:54;16.30;99.90
17726;DHT22;8983;53.156;17.960;2023-04-24T06:25:25;16.40;99.90
17726;DHT22;8983;53.156;17.960;2023-04-24T06:27:54;16.50;99.90
17726;DHT22;8983;53.156;17.960;2023-04-24T06:30:22;16.60;99.90
17726;DHT22;8983;53.156;17.960;2023-04-24T06:32:53;16.60;99.90
17726;DHT22;8983;53.156;17.960;2023-04-24T06:35:35;16.70;99.90
17726;DHT22;8983;53.156;17.960;2023-04-24T06:38:04;16.70;99.90
17726;DHT22;8983;53.156;17.960;2023-04-24T06:40:33;16.70;99.90
17726;DHT22;8983;53.156;17.960;2023-04-24T06:43:01;16.70;99.90
17726;DHT22;8983;53.156;17.960;2023-04-24T06:45:29;16.70;99.90
17726;DHT22;8983;53.156;17.960;2023-04-24T06:47:59;16.60;99.90
17726;DHT22;8983;53.156;17.960;2023-04-24T06:50:27;16.60;99.90
17726;DHT22;8983;53.156;17.960;2023-04-24T06:52:55;16.60;99.90
17726;DHT22;8983;53.156;17.960;2023-04-24T06:55:23;16.60;99.90
17726;DHT22;8983;53.156;17.960;2023-04-24T06:57:51;16.60;99.90
17726;DHT22;8983;53.156;17.960;2023-04-24T07:00:19;16.70;99.90
17726;DHT22;8983;53.156;17.960;2023-04-24T07:02:47;16.70;99.90
17726;DHT22;8983;53.156;17.960;2023-04-24T07:05:17;16.80;99.90
17726;DHT22;8983;53.156;17.960;2023-04-24T07:07:46;16.90;99.90
17726;DHT22;8983;53.156;17.960;2023-04-24T07:10:16;16.90;99.90
17726;DHT22;8983;53.156;17.960;2023-04-24T07:12:44;16.90;99.90
17726;DHT22;8983;53.156;17.960;2023-04-24T07:15:13;17.00;99.90
17726;DHT22;8983;53.156;17.960;2023-04-24T07:17:41;16.90;99.90
17726;DHT22;8983;53.156;17.960;2023-04-24T07:20:10;17.00;99.90
17726;DHT22;8983;53.156;17.960;2023-04-24T07:22:40;17.00;99.90
17726;DHT22;8983;53.156;17.960;2023-04-24T07:25:09;17.00;99.90
17726;DHT22;8983;53.156;17.960;2023-04-24T07:27:37;17.00;99.90
17726;DHT22;8983;53.156;17.960;2023-04-24T07:30:06;17.00;99.90
17726;DHT22;8983;53.156;17.960;2023-04-24T07:32:34;17.00;99.90
17726;DHT22;8983;53.156;17.960;2023-04-24T07:35:03;17.00;99.90
17726;DHT22;8983;53.156;17.960;2023-04-24T07:37:31;17.10;99.90
17726;DHT22;8983;53.156;17.960;2023-04-24T07:40:01;17.10;99.90
17726;DHT22;8983;53.156;17.960;2023-04-24T07:42:29;17.10;99.90
17726;DHT22;8983;53.156;17.960;2023-04-24T07:44:58;17.10;99.90
17726;DHT22;8983;53.156;17.960;2023-04-24T07:47:26;17.20;99.90
17726;DHT22;8983;53.156;17.960;2023-04-24T07:49:55;17.30;99.90
17726;DHT22;8983;53.156;17.960;2023-04-24T07:52:23;17.40;99.90
17726;DHT22;8983;53.156;17.960;2023-04-24T07:54:51;17.50;99.90
17726;DHT22;8983;53.156;17.960;2023-04-24T07:57:26;17.50;99.90
17726;DHT22;8983;53.156;17.960;2023-04-24T07:59:54;17.60;99.90
17726;DHT22;8983;53.156;17.960;2023-04-24T08:02:22;17.60;99.90
17726;DHT22;8983;53.156;17.960;2023-04-24T08:04:53;17.60;99.90
17726;DHT22;8983;53.156;17.960;2023-04-24T08:07:23;17.60;99.90
17726;DHT22;8983;53.156;17.960;2023-04-24T08:09:51;17.70;99.90
17726;DHT22;8983;53.156;17.960;2023-04-24T08:12:19;17.70;99.90
17726;DHT22;8983;53.156;17.960;2023-04-24T08:14:49;17.70;99.90
17726;DHT22;8983;53.156;17.960;2023-04-24T08:17:17;17.80;99.90
17726;DHT22;8983;53.156;17.960;2023-04-24T08:19:45;17.80;99.90
17726;DHT22;8983;53.156;17.960;2023-04-24T08:22:15;17.90;99.90
17726;DHT22;8983;53.156;17.960;2023-04-24T08:24:43;18.00;99.90
17726;DHT22;8983;53.156;17.960;2023-04-24T08:27:11;18.00;99.90
17726;DHT22;8983;53.156;17.960;2023-04-24T08:29:39;18.10;99.90
17726;DHT22;8983;53.156;17.960;2023-04-24T08:32:09;18.20;99.90
17726;DHT22;8983;53.156;17.960;2023-04-24T08:34:37;18.30;99.90
17726;DHT22;8983;53.156;17.960;2023-04-24T08:37:05;18.30;99.90
17726;DHT22;8983;53.156;17.960;2023-04-24T08:39:33;18.30;99.90
17726;DHT22;8983;53.156;17.960;2023-04-24T08:42:02;18.30;99.90
17726;DHT22;8983;53.156;17.960;2023-04-24T08:44:35;18.20;99.90
17726;DHT22;8983;53.156;17.960;2023-04-24T08:47:04;18.20;99.90
17726;DHT22;8983;53.156;17.960;2023-04-24T08:49:36;18.20;99.90
17726;DHT22;8983;53.156;17.960;2023-04-24T08:52:05;18.30;99.90
17726;DHT22;8983;53.156;17.960;2023-04-24T08:54:34;18.30;99.90
17726;DHT22;8983;53.156;17.960;2023-04-24T08:57:03;18.30;99.90
17726;DHT22;8983;53.156;17.960;2023-04-24T08:59:31;18.40;99.90
17726;DHT22;8983;53.156;17.960;2023-04-24T09:02:00;18.50;99.90
17726;DHT22;8983;53.156;17.960;2023-04-24T09:04:31;18.60;99.90
17726;DHT22;8983;53.156;17.960;2023-04-24T09:07:03;18.60;99.90
17726;DHT22;8983;53.156;17.960;2023-04-24T09:09:34;18.70;99.90
17726;DHT22;8983;53.156;17.960;2023-04-24T09:12:03;18.70;99.90
17726;DHT22;8983;53.156;17.960;2023-04-24T09:14:33;18.70;99.90
17726;DHT22;8983;53.156;17.960;2023-04-24T09:17:02;18.80;99.90
17726;DHT22;8983;53.156;17.960;2023-04-24T09:19:31;18.80;99.90
17726;DHT22;8983;53.156;17.960;2023-04-24T09:21:59;18.70;99.90
17726;DHT22;8983;53.156;17.960;2023-04-24T09:24:28;18.70;99.90
17726;DHT22;8983;53.156;17.960;2023-04-24T09:26:57;18.70;99.90
17726;DHT22;8983;53.156;17.960;2023-04-24T09:29:25;18.70;99.90
17726;DHT22;8983;53.156;17.960;2023-04-24T09:31:54;18.80;99.90
17726;DHT22;8983;53.156;17.960;2023-04-24T09:34:23;18.80;99.90
17726;DHT22;8983;53.156;17.960;2023-04-24T09:36:52;18.90;99.90
17726;DHT22;8983;53.156;17.960;2023-04-24T09:39:20;18.90;99.90
17726;DHT22;8983;53.156;17.960;2023-04-24T09:41:50;19.00;99.90
17726;DHT22;8983;53.156;17.960;2023-04-24T09:44:19;19.00;99.90
17726;DHT22;8983;53.156;17.960;2023-04-24T09:46:50;18.90;99.90
17726;DHT22;8983;53.156;17.960;2023-04-24T09:49:22;18.80;99.90
17726;DHT22;8983;53.156;17.960;2023-04-24T09:51:51;19.00;99.90
17726;DHT22;8983;53.156;17.960;2023-04-24T09:54:20;19.00;99.90
17726;DHT22;8983;53.156;17.960;2023-04-24T09:56:51;19.10;99.90
17726;DHT22;8983;53.156;17.960;2023-04-24T09:59:19;19.20;99.90
17726;DHT22;8983;53.156;17.960;2023-04-24T10:01:48;19.20;99.90
17726;DHT22;8983;53.156;17.960;2023-04-24T10:04:18;19.20;99.90
17726;DHT22;8983;53.156;17.960;2023-04-24T10:06:47;19.20;99.90
17726;DHT22;8983;53.156;17.960;2023-04-24T10:09:17;19.20;99.90
17726;DHT22;8983;53.156;17.960;2023-04-24T10:11:46;19.30;99.90
17726;DHT22;8983;53.156;17.960;2023-04-24T10:14:18;19.40;99.90
17726;DHT22;8983;53.156;17.960;2023-04-24T10:16:48;19.40;99.90
17726;DHT22;8983;53.156;17.960;2023-04-24T10:19:17;19.50;99.90
17726;DHT22;8983;53.156;17.960;2023-04-24T10:21:47;19.60;99.90
17726;DHT22;8983;53.156;17.960;2023-04-24T10:24:16;19.70;99.90
17726;DHT22;8983;53.156;17.960;2023-04-24T10:26:45;19.90;99.90
17726;DHT22;8983;53.156;17.960;2023-04-24T10:29:17;20.00;99.90
17726;DHT22;8983;53.156;17.960;2023-04-24T10:31:46;20.00;99.90
17726;DHT22;8983;53.156;17.960;2023-04-24T10:34:16;20.00;99.90
17726;DHT22;8983;53.156;17.960;2023-04-24T10:36:48;20.10;99.90
17726;DHT22;8983;53.156;17.960;2023-04-24T10:39:17;20.10;99.90
17726;DHT22;8983;53.156;17.960;2023-04-24T10:41:53;20.10;99.90
17726;DHT22;8983;53.156;17.960;2023-04-24T10:44:25;20.30;99.90
17726;DHT22;8983;53.156;17.960;2023-04-24T10:47:03;20.50;99.90
17726;DHT22;8983;53.156;17.960;2023-04-24T10:49:32;20.70;99.90
17726;DHT22;8983;53.156;17.960;2023-04-24T10:52:01;21.00;99.90
17726;DHT22;8983;53.156;17.960;2023-04-24T10:54:35;21.30;99.90
17726;DHT22;8983;53.156;17.960;2023-04-24T10:57:28;21.50;99.90
17726;DHT22;8983;53.156;17.960;2023-04-24T11:02:42;22.20;99.90
17726;DHT22;8983;53.156;17.960;2023-04-24T11:05:16;22.30;99.90
17726;DHT22;8983;53.156;17.960;2023-04-24T11:08:10;22.20;99.90
17726;DHT22;8983;53.156;17.960;2023-04-24T11:10:43;22.40;99.90
17726;DHT22;8983;53.156;17.960;2023-04-24T11:13:15;22.60;99.90
17726;DHT22;8983;53.156;17.960;2023-04-24T11:15:44;22.90;99.40
17726;DHT22;8983;53.156;17.960;2023-04-24T11:18:37;23.10;98.60
17726;DHT22;8983;53.156;17.960;2023-04-24T11:21:10;23.10;97.60
17726;DHT22;8983;53.156;17.960;2023-04-24T11:23:39;23.00;97.20
17726;DHT22;8983;53.156;17.960;2023-04-24T11:26:11;22.90;97.00
17726;DHT22;8983;53.156;17.960;2023-04-24T11:28:45;22.80;96.90
17726;DHT22;8983;53.156;17.960;2023-04-24T11:31:40;22.60;96.70
17726;DHT22;8983;53.156;17.960;2023-04-24T11:34:10;22.30;96.90
17726;DHT22;8983;53.156;17.960;2023-04-24T11:36:39;22.00;97.40
17726;DHT22;8983;53.156;17.960;2023-04-24T11:39:07;21.80;97.90
17726;DHT22;8983;53.156;17.960;2023-04-24T11:41:37;21.80;98.40
17726;DHT22;8983;53.156;17.960;2023-04-24T11:44:06;21.80;98.70
17726;DHT22;8983;53.156;17.960;2023-04-24T11:46:34;21.70;97.90
17726;DHT22;8983;53.156;17.960;2023-04-24T11:49:06;21.70;96.90
17726;DHT22;8983;53.156;17.960;2023-04-24T11:51:34;21.70;96.70
17726;DHT22;8983;53.156;17.960;2023-04-24T11:54:18;21.80;96.40
17726;DHT22;8983;53.156;17.960;2023-04-24T11:56:47;22.00;95.80
17726;DHT22;8983;53.156;17.960;2023-04-24T11:59:15;22.10;95.50
17726;DHT22;8983;53.156;17.960;2023-04-24T12:01:43;22.10;95.20
17726;DHT22;8983;53.156;17.960;2023-04-24T12:04:14;22.00;95.20
17726;DHT22;8983;53.156;17.960;2023-04-24T12:07:01;21.90;94.70
17726;DHT22;8983;53.156;17.960;2023-04-24T12:09:39;21.80;94.80
17726;DHT22;8983;53.156;17.960;2023-04-24T12:12:07;21.60;94.90
17726;DHT22;8983;53.156;17.960;2023-04-24T12:14:47;21.60;94.90
17726;DHT22;8983;53.156;17.960;2023-04-24T12:17:15;21.70;95.20
17726;DHT22;8983;53.156;17.960;2023-04-24T12:19:48;21.60;95.30
17726;DHT22;8983;53.156;17.960;2023-04-24T12:22:17;21.60;95.70
17726;DHT22;8983;53.156;17.960;2023-04-24T12:25:02;21.70;95.90
17726;DHT22;8983;53.156;17.960;2023-04-24T12:27:31;21.70;95.50
17726;DHT22;8983;53.156;17.960;2023-04-24T12:30:05;21.50;95.40
17726;DHT22;8983;53.156;17.960;2023-04-24T12:32:33;21.20;95.70
17726;DHT22;8983;53.156;17.960;2023-04-24T12:35:04;21.10;96.20
17726;DHT22;8983;53.156;17.960;2023-04-24T12:37:33;21.10;96.70
17726;DHT22;8983;53.156;17.960;2023-04-24T12:40:05;21.30;96.70
17726;DHT22;8983;53.156;17.960;2023-04-24T12:42:36;21.40;96.60
17726;DHT22;8983;53.156;17.960;2023-04-24T12:45:09;21.30;96.80
17726;DHT22;8983;53.156;17.960;2023-04-24T12:47:39;21.20;96.90
17726;DHT22;8983;53.156;17.960;2023-04-24T12:50:11;21.10;97.20
17726;DHT22;8983;53.156;17.960;2023-04-24T12:52:40;21.10;97.50
17726;DHT22;8983;53.156;17.960;2023-04-24T12:55:09;21.20;97.70
17726;DHT22;8983;53.156;17.960;2023-04-24T12:57:39;21.40;97.80
17726;DHT22;8983;53.156;17.960;2023-04-24T13:00:09;21.80;97.80
17726;DHT22;8983;53.156;17.960;2023-04-24T13:02:37;22.10;97.60
17726;DHT22;8983;53.156;17.960;2023-04-24T13:05:06;22.20;97.30
17726;DHT22;8983;53.156;17.960;2023-04-24T13:07:35;22.20;97.30
17726;DHT22;8983;53.156;17.960;2023-04-24T13:10:04;22.20;96.40
17726;DHT22;8983;53.156;17.960;2023-04-24T13:12:32;22.10;96.20
17726;DHT22;8983;53.156;17.960;2023-04-24T13:15:00;22.20;96.00
17726;DHT22;8983;53.156;17.960;2023-04-24T13:17:28;22.10;95.50
17726;DHT22;8983;53.156;17.960;2023-04-24T13:19:56;22.00;95.50
17726;DHT22;8983;53.156;17.960;2023-04-24T13:22:24;22.10;95.70
17726;DHT22;8983;53.156;17.960;2023-04-24T13:24:54;22.20;95.70
17726;DHT22;8983;53.156;17.960;2023-04-24T13:27:23;22.20;95.50
17726;DHT22;8983;53.156;17.960;2023-04-24T13:29:51;22.20;95.40
17726;DHT22;8983;53.156;17.960;2023-04-24T13:32:19;22.30;95.50
17726;DHT22;8983;53.156;17.960;2023-04-24T13:34:47;22.30;95.30
17726;DHT22;8983;53.156;17.960;2023-04-24T13:37:15;22.30;95.10
17726;DHT22;8983;53.156;17.960;2023-04-24T13:39:43;22.20;95.10
17726;DHT22;8983;53.156;17.960;2023-04-24T13:42:12;22.30;95.10
17726;DHT22;8983;53.156;17.960;2023-04-24T13:44:41;22.50;95.00
17726;DHT22;8983;53.156;17.960;2023-04-24T13:47:09;22.80;94.80
17726;DHT22;8983;53.156;17.960;2023-04-24T13:49:37;23.00;94.20
17726;DHT22;8983;53.156;17.960;2023-04-24T13:52:05;23.00;93.50
17726;DHT22;8983;53.156;17.960;2023-04-24T13:54:34;22.90;93.00
17726;DHT22;8983;53.156;17.960;2023-04-24T13:57:02;22.70;92.60
17726;DHT22;8983;53.156;17.960;2023-04-24T13:59:32;22.50;92.70
17726;DHT22;8983;53.156;17.960;2023-04-24T14:02:00;22.30;93.00
17726;DHT22;8983;53.156;17.960;2023-04-24T14:04:28;22.00;93.50
17726;DHT22;8983;53.156;17.960;2023-04-24T14:06:57;21.80;94.20
17726;DHT22;8983;53.156;17.960;2023-04-24T14:09:25;21.60;94.70
17726;DHT22;8983;53.156;17.960;2023-04-24T14:11:53;21.60;95.50
17726;DHT22;8983;53.156;17.960;2023-04-24T14:14:21;21.40;95.40
17726;DHT22;8983;53.156;17.960;2023-04-24T14:16:50;21.30;95.90
17726;DHT22;8983;53.156;17.960;2023-04-24T14:19:19;21.20;99.90
17726;DHT22;8983;53.156;17.960;2023-04-24T14:21:47;21.20;99.90
17726;DHT22;8983;53.156;17.960;2023-04-24T14:24:15;21.10;99.90
17726;DHT22;8983;53.156;17.960;2023-04-24T14:29:11;21.00;96.50
17726;DHT22;8983;53.156;17.960;2023-04-24T14:31:41;20.90;96.80
17726;DHT22;8983;53.156;17.960;2023-04-24T14:34:11;20.70;97.00
17726;DHT22;8983;53.156;17.960;2023-04-24T14:36:39;20.70;96.90
17726;DHT22;8983;53.156;17.960;2023-04-24T14:39:07;20.70;96.80
17726;DHT22;8983;53.156;17.960;2023-04-24T14:41:35;20.60;96.80
17726;DHT22;8983;53.156;17.960;2023-04-24T14:44:06;20.60;96.80
17726;DHT22;8983;53.156;17.960;2023-04-24T14:46:34;20.70;96.70
17726;DHT22;8983;53.156;17.960;2023-04-24T14:49:02;20.90;96.60
17726;DHT22;8983;53.156;17.960;2023-04-24T14:51:32;21.10;96.40
17726;DHT22;8983;53.156;17.960;2023-04-24T14:54:00;21.20;96.30
17726;DHT22;8983;53.156;17.960;2023-04-24T14:56:28;21.30;96.20
17726;DHT22;8983;53.156;17.960;2023-04-24T14:58:56;21.40;96.10
17726;DHT22;8983;53.156;17.960;2023-04-24T15:01:24;21.60;95.60
17726;DHT22;8983;53.156;17.960;2023-04-24T15:03:52;21.50;95.30
17726;DHT22;8983;53.156;17.960;2023-04-24T15:06:21;21.50;95.20
17726;DHT22;8983;53.156;17.960;2023-04-24T15:08:50;21.50;95.00
17726;DHT22;8983;53.156;17.960;2023-04-24T15:11:18;21.60;95.20
17726;DHT22;8983;53.156;17.960;2023-04-24T15:13:47;21.80;94.80
17726;DHT22;8983;53.156;17.960;2023-04-24T15:16:15;22.00;94.40
17726;DHT22;8983;53.156;17.960;2023-04-24T15:18:43;22.40;93.70
17726;DHT22;8983;53.156;17.960;2023-04-24T15:21:12;22.60;93.30
17726;DHT22;8983;53.156;17.960;2023-04-24T15:23:40;22.80;93.00
17726;DHT22;8983;53.156;17.960;2023-04-24T15:26:10;22.80;92.20
17726;DHT22;8983;53.156;17.960;2023-04-24T15:28:38;22.80;91.90
17726;DHT22;8983;53.156;17.960;2023-04-24T15:31:06;22.90;91.50
17726;DHT22;8983;53.156;17.960;2023-04-24T15:33:34;22.80;91.10
17726;DHT22;8983;53.156;17.960;2023-04-24T15:36:02;22.80;91.00
17726;DHT22;8983;53.156;17.960;2023-04-24T15:38:30;22.70;90.90
17726;DHT22;8983;53.156;17.960;2023-04-24T15:40:59;22.60;91.10
17726;DHT22;8983;53.156;17.960;2023-04-24T15:43:28;22.50;90.90
17726;DHT22;8983;53.156;17.960;2023-04-24T15:45:57;22.40;90.80
17726;DHT22;8983;53.156;17.960;2023-04-24T15:48:27;22.20;90.80